Time;durP1;ratioP1;P1;durP2;ratioP2;P2;SDS_P1;SDS_P2;PMS_P1;PMS_P2;Temp;Humidity;BMP_temperature;BMP_pressure;BME280_temperature;BME280_humidity;BME280_pressure;Samples;Min_cycle;Max_cycle;Signal;HPM_P1;HPM_P2
2022/08/06 00:02:09;;;;;;;6.30;1.35;;;17.40;66.70;;;;;;4989774;28;20022;-75
2022/08/06 00:04:35;;;;;;;7.55;1.63;;;17.30;66.50;;;;;;4989328;28;20572;-74
2022/08/06 00:07:00;;;;;;;7.50;1.20;;;17.30;66.70;;;;;;4989362;28;20076;-75
2022/08/06 00:09:30;;;;;;;5.40;1.35;;;17.30;66.80;;;;;;4988831;28;20033;-74
2022/08/06 00:12:00;;;;;;;5.13;1.47;;;17.30;66.90;;;;;;4989711;28;20030;-74
2022/08/06 00:14:29;;;;;;;6.28;1.25;;;17.30;67.00;;;;;;4989458;28;20261;-77
2022/08/06 00:16:55;;;;;;;9.60;1.25;;;17.30;67.10;;;;;;4989554;28;20026;-75
2022/08/06 00:19:23;;;;;;;10.32;2.05;;;17.30;67.10;;;;;;4988742;28;20028;-74
2022/08/06 00:21:49;;;;;;;6.38;1.48;;;17.30;67.20;;;;;;4989435;28;20019;-75
2022/08/06 00:24:14;;;;;;;7.03;1.20;;;17.20;67.30;;;;;;4989596;28;20071;-73
2022/08/06 00:26:40;;;;;;;8.77;1.83;;;17.30;67.40;;;;;;4989492;28;20038;-75
2022/08/06 00:29:06;;;;;;;5.90;1.05;;;17.20;67.40;;;;;;4988953;28;20165;-75
2022/08/06 00:31:33;;;;;;;7.97;1.90;;;17.20;67.50;;;;;;4989001;28;20041;-74
2022/08/06 00:34:03;;;;;;;3.97;1.00;;;17.20;67.50;;;;;;4988853;28;20096;-75
2022/08/06 00:36:30;;;;;;;4.40;1.52;;;17.20;67.50;;;;;;4981669;28;20118;-74
2022/08/06 00:39:03;;;;;;;4.80;1.27;;;17.20;67.70;;;;;;4952764;28;20018;-74
2022/08/06 00:41:30;;;;;;;6.53;1.10;;;17.20;67.90;;;;;;4970112;28;20038;-75
2022/08/06 00:43:56;;;;;;;5.57;1.30;;;17.20;68.00;;;;;;4969971;28;20143;-74
2022/08/06 00:46:25;;;;;;;7.03;1.45;;;17.20;68.10;;;;;;4969650;28;20149;-75
2022/08/06 00:48:51;;;;;;;8.07;1.40;;;17.20;68.20;;;;;;4968153;28;20489;-74
2022/08/06 00:51:17;;;;;;;8.90;1.20;;;17.20;68.30;;;;;;4989099;28;20018;-74
2022/08/06 00:53:43;;;;;;;5.32;1.13;;;17.20;68.50;;;;;;4989664;28;20026;-75
2022/08/06 00:56:08;;;;;;;8.30;1.35;;;17.20;68.80;;;;;;4990071;28;20469;-75
2022/08/06 00:58:35;;;;;;;5.53;1.20;;;17.10;68.70;;;;;;4989454;28;20032;-74
2022/08/06 01:01:01;;;;;;;5.90;1.02;;;17.20;68.80;;;;;;4991297;28;20049;-74
2022/08/06 01:03:27;;;;;;;5.80;1.40;;;17.20;68.80;;;;;;4992884;28;20496;-74
2022/08/06 01:05:53;;;;;;;7.15;1.38;;;17.10;68.80;;;;;;4993299;28;20503;-74
2022/08/06 01:08:19;;;;;;;7.90;1.40;;;17.10;68.80;;;;;;4992841;28;20046;-75
2022/08/06 01:10:46;;;;;;;6.00;1.40;;;17.10;68.90;;;;;;4992474;28;20399;-75
2022/08/06 01:13:11;;;;;;;5.25;1.30;;;17.10;69.20;;;;;;4992579;28;20026;-76
2022/08/06 01:15:40;;;;;;;6.13;1.33;;;17.10;69.30;;;;;;4992001;28;20364;-75
2022/08/06 01:18:34;;;;;;;5.50;1.23;;;17.00;69.40;;;;;;4992139;28;20034;-75
2022/08/06 01:21:12;;;;;;;4.50;1.10;;;17.00;69.70;;;;;;4988769;28;20392;-75
2022/08/06 01:24:02;;;;;;;10.27;1.52;;;16.90;69.80;;;;;;4990844;28;20746;-75
2022/08/06 01:26:50;;;;;;;4.93;1.08;;;16.80;69.90;;;;;;4973259;28;20030;-75
2022/08/06 01:29:27;;;;;;;8.82;1.60;;;16.80;70.10;;;;;;4991274;28;20038;-77
2022/08/06 01:32:05;;;;;;;8.90;1.10;;;16.80;70.10;;;;;;4989570;28;20026;-75
2022/08/06 01:34:36;;;;;;;8.02;1.58;;;16.80;70.20;;;;;;4989294;28;20015;-75
2022/08/06 01:37:16;;;;;;;4.88;1.27;;;16.80;70.40;;;;;;4991214;28;20054;-76
2022/08/06 01:39:46;;;;;;;5.77;1.63;;;16.80;70.40;;;;;;4990607;28;20022;-75
2022/08/06 01:42:13;;;;;;;10.73;1.25;;;16.80;70.40;;;;;;4989535;28;20022;-75
2022/08/06 01:44:41;;;;;;;9.63;1.60;;;16.80;70.30;;;;;;4988552;28;20381;-74
2022/08/06 01:47:12;;;;;;;7.43;1.17;;;16.80;70.40;;;;;;4973491;28;20519;-74
2022/08/06 01:49:43;;;;;;;5.78;1.10;;;16.70;70.40;;;;;;4991701;28;20819;-74
2022/08/06 01:52:11;;;;;;;6.25;1.35;;;16.70;70.40;;;;;;4973963;28;20025;-75
2022/08/06 01:54:43;;;;;;;9.02;1.67;;;16.80;70.50;;;;;;4991634;28;20076;-74
2022/08/06 01:57:11;;;;;;;13.88;1.67;;;16.70;70.50;;;;;;4990934;28;20029;-75
2022/08/06 01:59:44;;;;;;;3.78;1.20;;;16.70;70.50;;;;;;4991641;28;20033;-73
2022/08/06 02:02:17;;;;;;;4.38;1.40;;;16.70;70.50;;;;;;4989454;28;20026;-74
2022/08/06 02:04:45;;;;;;;7.60;1.70;;;16.70;70.40;;;;;;4988940;28;20042;-74
2022/08/06 02:07:13;;;;;;;7.60;1.50;;;16.70;70.40;;;;;;4987745;28;20037;-73
2022/08/06 02:09:41;;;;;;;6.32;1.33;;;16.70;70.50;;;;;;4991468;28;20166;-74
2022/08/06 02:12:13;;;;;;;5.78;1.10;;;16.70;70.50;;;;;;4991075;28;20034;-74
2022/08/06 02:14:44;;;;;;;4.35;1.20;;;16.70;70.60;;;;;;4991208;28;20058;-74
2022/08/06 02:17:12;;;;;;;5.63;1.52;;;16.60;71.50;;;;;;4991576;28;20109;-74
2022/08/06 02:19:45;;;;;;;5.65;1.33;;;16.60;70.80;;;;;;4991389;28;20804;-74
2022/08/06 02:22:11;;;;;;;7.72;1.95;;;16.60;71.10;;;;;;4988145;28;20022;-75
2022/08/06 02:24:38;;;;;;;6.60;1.20;;;16.60;71.00;;;;;;4991049;28;20022;-73
2022/08/06 02:27:07;;;;;;;7.03;1.10;;;16.60;71.00;;;;;;4990379;28;20039;-74
2022/08/06 02:29:33;;;;;;;7.22;1.60;;;16.60;71.00;;;;;;4988613;28;20031;-74
2022/08/06 02:31:59;;;;;;;6.20;1.30;;;16.60;71.10;;;;;;4990409;28;20015;-74
2022/08/06 02:34:25;;;;;;;9.50;1.75;;;16.50;71.10;;;;;;4990399;28;20060;-75
2022/08/06 02:37:13;;;;;;;6.22;1.50;;;16.50;71.30;;;;;;4988183;28;20073;-75
2022/08/06 02:39:46;;;;;;;6.47;1.48;;;16.40;71.20;;;;;;4966062;28;20026;-74
2022/08/06 02:42:36;;;;;;;7.75;1.67;;;16.40;71.20;;;;;;4988177;28;20072;-75
2022/08/06 02:45:21;;;;;;;4.30;1.10;;;16.40;71.50;;;;;;4989825;28;20133;-75
2022/08/06 02:48:00;;;;;;;7.43;1.73;;;16.40;71.60;;;;;;4989841;28;20030;-75
2022/08/06 02:50:38;;;;;;;5.47;1.42;;;16.40;71.60;;;;;;4990267;28;20015;-75
2022/08/06 02:53:08;;;;;;;4.03;1.20;;;16.30;71.70;;;;;;4986546;28;20030;-74
2022/08/06 02:55:38;;;;;;;5.43;1.00;;;16.30;71.80;;;;;;4985503;28;20032;-74
2022/08/06 02:58:37;;;;;;;6.68;1.40;;;16.30;72.10;;;;;;4990428;28;20117;-75
2022/08/06 03:01:07;;;;;;;5.68;1.40;;;16.30;72.10;;;;;;4985929;28;20038;-74
2022/08/06 03:03:34;;;;;;;5.93;1.73;;;16.30;72.00;;;;;;4990963;28;20082;-74
2022/08/06 03:06:03;;;;;;;6.10;1.42;;;16.30;72.00;;;;;;4982728;28;20476;-75
2022/08/06 03:08:30;;;;;;;8.25;1.20;;;16.30;72.00;;;;;;4990277;28;20505;-74
2022/08/06 03:10:58;;;;;;;5.05;1.48;;;16.40;71.90;;;;;;4989972;28;20152;-75
2022/08/06 03:13:24;;;;;;;8.43;1.60;;;16.30;71.70;;;;;;4989361;28;20149;-74
2022/08/06 03:15:51;;;;;;;4.78;1.20;;;16.30;71.80;;;;;;4972348;28;20033;-74
2022/08/06 03:18:21;;;;;;;6.00;1.20;;;16.30;71.80;;;;;;4972097;28;20030;-74
2022/08/06 03:20:47;;;;;;;5.20;1.25;;;16.30;72.00;;;;;;4988834;28;20030;-74
2022/08/06 03:23:14;;;;;;;4.38;1.35;;;16.30;71.90;;;;;;4971396;28;20438;-75
2022/08/06 03:25:40;;;;;;;3.58;1.33;;;16.30;72.00;;;;;;4990100;28;20106;-75
2022/08/06 03:28:08;;;;;;;4.32;1.40;;;16.30;71.80;;;;;;4989658;28;20045;-75
2022/08/06 03:30:35;;;;;;;5.78;1.30;;;16.30;71.90;;;;;;4989858;28;20023;-74
2022/08/06 03:33:10;;;;;;;5.75;1.10;;;16.30;72.00;;;;;;4989268;28;20084;-75
2022/08/06 03:35:36;;;;;;;7.47;1.58;;;16.30;72.00;;;;;;4989244;28;20073;-75
2022/08/06 03:38:03;;;;;;;5.47;1.35;;;16.30;71.80;;;;;;4966594;28;20026;-74
2022/08/06 03:40:31;;;;;;;4.00;1.52;;;16.30;71.80;;;;;;4989744;28;20045;-75
2022/08/06 03:42:56;;;;;;;4.72;1.50;;;16.30;72.00;;;;;;4987176;28;20129;-75
2022/08/06 03:45:24;;;;;;;6.00;1.67;;;16.30;72.00;;;;;;4988897;28;20140;-74
2022/08/06 03:47:54;;;;;;;5.47;1.45;;;16.30;72.00;;;;;;4989270;28;20033;-75
2022/08/06 03:50:21;;;;;;;;;;;16.20;71.90;;;;;;4989675;28;20029;-74
2022/08/06 03:52:54;;;;;;;5.25;2.10;;;16.30;72.00;;;;;;4986748;28;19909;-74
2022/08/06 03:55:24;;;;;;;5.95;1.60;;;16.20;71.80;;;;;;4989234;28;20022;-75
2022/08/06 03:57:54;;;;;;;4.50;1.42;;;16.20;71.90;;;;;;4969529;28;20049;-76
2022/08/06 04:00:23;;;;;;;4.82;1.67;;;16.20;72.10;;;;;;4988091;28;20023;-75
2022/08/06 04:02:52;;;;;;;4.70;1.63;;;16.10;72.20;;;;;;4987311;28;20015;-75
2022/08/06 04:05:25;;;;;;;6.63;1.48;;;16.20;72.30;;;;;;4987886;28;20043;-75
2022/08/06 04:08:03;;;;;;;6.07;1.40;;;16.20;72.50;;;;;;4987541;28;20492;-75
2022/08/06 04:10:40;;;;;;;3.78;1.17;;;16.10;72.50;;;;;;4984136;28;20054;-74
2022/08/06 04:13:09;;;;;;;5.55;1.65;;;16.20;72.50;;;;;;4986087;28;20478;-74
2022/08/06 04:15:36;;;;;;;5.60;1.58;;;16.20;72.60;;;;;;4989316;28;20449;-74
2022/08/06 04:18:08;;;;;;;6.53;1.63;;;16.10;72.70;;;;;;4988750;28;20018;-75
2022/08/06 04:20:35;;;;;;;7.03;1.98;;;16.20;72.90;;;;;;4989029;28;20018;-74
2022/08/06 04:23:01;;;;;;;4.97;2.05;;;16.20;72.80;;;;;;4989562;28;20217;-74
2022/08/06 04:25:36;;;;;;;3.97;1.45;;;16.20;72.80;;;;;;4986539;28;20131;-74
2022/08/06 04:28:04;;;;;;;4.03;1.50;;;16.10;72.90;;;;;;4988595;28;21001;-74
2022/08/06 04:30:32;;;;;;;8.05;1.70;;;16.10;72.90;;;;;;4986217;28;20506;-75
2022/08/06 04:32:59;;;;;;;4.85;1.83;;;16.10;72.80;;;;;;4988130;28;20061;-75
2022/08/06 04:35:24;;;;;;;5.65;1.65;;;16.20;72.80;;;;;;4988354;28;20037;-74
2022/08/06 04:37:51;;;;;;;5.35;1.80;;;16.20;72.80;;;;;;4988232;28;20027;-74
2022/08/06 04:40:17;;;;;;;5.47;1.52;;;16.20;72.70;;;;;;4988446;28;20065;-74
2022/08/06 04:42:43;;;;;;;7.93;1.80;;;16.20;72.80;;;;;;4987665;28;20022;-74
2022/08/06 04:45:09;;;;;;;5.80;1.48;;;16.20;72.70;;;;;;4988337;28;20472;-75
2022/08/06 04:47:37;;;;;;;6.00;1.67;;;16.30;72.90;;;;;;4988578;28;20058;-75
2022/08/06 04:50:03;;;;;;;4.72;1.60;;;16.30;72.90;;;;;;4988050;28;20026;-74
2022/08/06 04:52:29;;;;;;;5.22;1.75;;;16.30;73.00;;;;;;4970702;28;20477;-75
2022/08/06 04:54:55;;;;;;;4.80;1.50;;;16.30;73.00;;;;;;4970647;28;20094;-75
2022/08/06 04:57:21;;;;;;;9.77;2.13;;;16.40;73.10;;;;;;4987973;28;20046;-75
2022/08/06 04:59:46;;;;;;;4.10;1.38;;;16.40;73.00;;;;;;4988492;28;20108;-75
2022/08/06 05:02:12;;;;;;;4.40;1.77;;;16.50;72.80;;;;;;4987973;28;20445;-75
2022/08/06 05:04:39;;;;;;;6.97;1.60;;;16.60;72.60;;;;;;4988227;28;20062;-75
2022/08/06 05:07:22;;;;;;;5.57;2.15;;;16.60;72.40;;;;;;4986988;28;20018;-75
2022/08/06 05:09:48;;;;;;;8.32;2.25;;;16.70;72.20;;;;;;4970179;28;20022;-75
2022/08/06 05:12:19;;;;;;;4.93;1.70;;;16.70;72.00;;;;;;4987943;28;20022;-75
2022/08/06 05:14:58;;;;;;;4.10;1.65;;;16.70;71.80;;;;;;4987458;28;20018;-75
2022/08/06 05:17:29;;;;;;;7.30;2.00;;;16.70;71.70;;;;;;4970695;28;20018;-75
2022/08/06 05:20:26;;;;;;;6.70;1.80;;;16.60;71.70;;;;;;4988224;28;20061;-76
2022/08/06 05:22:56;;;;;;;6.35;2.10;;;16.50;72.00;;;;;;4974330;28;20085;-74
2022/08/06 05:25:22;;;;;;;4.97;1.77;;;16.50;72.20;;;;;;4988006;28;20015;-75
2022/08/06 05:27:48;;;;;;;5.45;2.10;;;16.50;72.30;;;;;;4986671;28;20408;-75
2022/08/06 05:30:14;;;;;;;3.72;1.45;;;16.50;72.40;;;;;;4986896;28;20025;-75
2022/08/06 05:32:44;;;;;;;7.95;2.20;;;16.50;72.40;;;;;;4986663;28;20026;-75
2022/08/06 05:35:10;;;;;;;5.25;2.03;;;16.60;72.60;;;;;;4970349;28;20018;-75
2022/08/06 05:37:37;;;;;;;6.55;1.90;;;16.60;72.50;;;;;;4988063;28;20381;-76
2022/08/06 05:40:04;;;;;;;6.50;1.83;;;16.70;72.70;;;;;;4987731;28;20417;-75
2022/08/06 05:42:30;;;;;;;6.53;2.15;;;16.70;72.70;;;;;;4985370;28;20557;-75
2022/08/06 05:44:55;;;;;;;5.20;1.67;;;16.80;72.60;;;;;;4987580;28;20105;-75
2022/08/06 05:47:27;;;;;;;6.65;1.90;;;16.70;72.50;;;;;;4990404;28;20030;-75
2022/08/06 05:50:09;;;;;;;6.40;1.80;;;16.70;72.40;;;;;;4990226;28;20026;-75
2022/08/06 05:53:03;;;;;;;11.20;1.80;;;16.80;72.50;;;;;;4972015;28;20535;-74
2022/08/06 05:55:45;;;;;;;5.90;1.98;;;16.70;72.50;;;;;;4990664;28;20042;-75
2022/08/06 05:58:15;;;;;;;6.50;1.65;;;16.80;72.50;;;;;;4991855;28;20230;-73
2022/08/06 06:00:42;;;;;;;3.65;1.70;;;16.90;72.60;;;;;;4989561;28;20093;-75
2022/08/06 06:03:15;;;;;;;3.67;1.20;;;17.00;72.60;;;;;;4990896;28;20018;-75
2022/08/06 06:05:42;;;;;;;2.53;1.00;;;17.10;72.50;;;;;;4992232;28;20117;-76
2022/08/06 06:08:08;;;;;;;5.07;1.00;;;17.30;70.70;;;;;;4991355;28;20040;-75
2022/08/06 06:10:37;;;;;;;7.25;1.73;;;17.50;70.20;;;;;;4991168;28;20035;-76
2022/08/06 06:13:05;;;;;;;4.10;1.42;;;17.60;70.20;;;;;;4989278;28;20133;-74
2022/08/06 06:15:35;;;;;;;5.70;1.60;;;17.80;70.20;;;;;;4990375;28;20041;-75
2022/08/06 06:18:32;;;;;;;8.55;1.73;;;17.90;70.10;;;;;;4991130;28;20031;-75
2022/08/06 06:21:24;;;;;;;8.77;1.23;;;18.00;69.80;;;;;;4990260;28;20053;-74
2022/08/06 06:24:00;;;;;;;3.10;0.80;;;18.20;69.50;;;;;;4990807;28;20473;-74
2022/08/06 06:26:39;;;;;;;6.03;1.25;;;18.30;69.30;;;;;;4990369;28;20041;-74
2022/08/06 06:29:12;;;;;;;4.50;0.90;;;18.30;68.70;;;;;;4989809;28;20033;-76
2022/08/06 06:31:57;;;;;;;4.47;0.88;;;18.50;68.80;;;;;;4972903;28;20038;-75
2022/08/06 06:34:50;;;;;;;5.68;0.90;;;18.60;68.60;;;;;;4990571;28;20037;-76
2022/08/06 06:37:26;;;;;;;2.65;0.90;;;18.60;68.20;;;;;;4989842;28;20484;-75
2022/08/06 06:40:21;;;;;;;6.40;1.08;;;18.70;68.00;;;;;;4991847;28;20027;-74
2022/08/06 06:43:11;;;;;;;5.75;1.00;;;18.80;67.50;;;;;;4990511;28;20014;-75
2022/08/06 06:45:50;;;;;;;2.28;0.85;;;18.90;67.20;;;;;;4989409;28;20105;-75
2022/08/06 06:48:21;;;;;;;3.08;0.80;;;19.00;66.20;;;;;;4989204;28;20117;-76
2022/08/06 06:50:51;;;;;;;4.50;1.10;;;19.10;66.40;;;;;;4991057;28;20018;-77
2022/08/06 06:53:17;;;;;;;1.20;0.52;;;19.20;66.30;;;;;;4989874;28;20062;-75
2022/08/06 06:55:54;;;;;;;5.53;1.00;;;19.30;66.00;;;;;;4991449;28;20026;-75
2022/08/06 06:58:46;;;;;;;3.80;0.90;;;19.40;65.40;;;;;;4988024;28;20350;-77
2022/08/06 07:01:14;;;;;;;4.50;0.95;;;19.50;65.40;;;;;;4975494;28;20045;-76
2022/08/06 07:03:43;;;;;;;2.42;0.82;;;19.60;65.10;;;;;;4986224;28;20046;-76
2022/08/06 07:06:10;;;;;;;4.70;0.90;;;19.70;64.70;;;;;;4982380;28;20023;-77
2022/08/06 07:08:45;;;;;;;5.15;1.35;;;19.80;64.60;;;;;;4978443;28;20032;-76
2022/08/06 07:11:22;;;;;;;3.88;0.65;;;19.80;64.70;;;;;;4982766;28;20046;-75
2022/08/06 07:13:50;;;;;;;2.90;0.82;;;19.90;63.40;;;;;;4982475;28;20060;-78
2022/08/06 07:16:18;;;;;;;5.85;1.17;;;19.90;64.20;;;;;;4972702;28;20019;-76
2022/08/06 07:18:46;;;;;;;3.00;0.85;;;20.00;64.70;;;;;;4976570;28;20473;-76
2022/08/06 07:21:15;;;;;;;3.78;0.70;;;20.10;64.10;;;;;;4974686;28;20103;-76
2022/08/06 07:23:44;;;;;;;4.38;0.80;;;20.10;64.10;;;;;;4988581;28;20097;-78
2022/08/06 07:26:12;;;;;;;4.70;1.45;;;20.20;64.30;;;;;;4979098;28;20126;-76
2022/08/06 07:28:39;;;;;;;5.32;1.20;;;20.30;64.00;;;;;;4977587;28;20089;-75
2022/08/06 07:31:07;;;;;;;4.63;0.80;;;20.40;61.80;;;;;;4975398;28;20027;-76
2022/08/06 07:33:44;;;;;;;4.20;1.05;;;20.40;62.30;;;;;;4980265;28;20055;-76
2022/08/06 07:36:13;;;;;;;2.40;0.60;;;20.40;61.50;;;;;;4987029;28;20104;-76
2022/08/06 07:38:42;;;;;;;4.18;0.98;;;20.40;61.70;;;;;;4990348;28;20562;-76
2022/08/06 07:41:09;;;;;;;3.65;0.82;;;20.40;61.40;;;;;;4989285;28;20034;-76
2022/08/06 07:43:51;;;;;;;3.85;0.88;;;20.50;61.60;;;;;;4987478;28;20076;-71
2022/08/06 07:46:20;;;;;;;3.53;0.77;;;20.60;61.20;;;;;;4984622;28;20022;-70
2022/08/06 07:48:52;;;;;;;3.60;0.50;;;20.70;61.10;;;;;;4986272;28;20030;-71
2022/08/06 07:51:22;;;;;;;3.53;0.82;;;21.00;61.00;;;;;;4988712;28;20029;-77
2022/08/06 07:53:49;;;;;;;3.70;0.90;;;21.30;60.30;;;;;;4988892;28;20106;-75
2022/08/06 07:56:15;;;;;;;2.65;0.70;;;21.40;59.00;;;;;;4990510;28;20031;-72
2022/08/06 07:58:43;;;;;;;3.75;0.65;;;21.50;58.20;;;;;;4989759;28;20027;-74
2022/08/06 08:01:08;;;;;;;5.10;0.93;;;21.50;57.20;;;;;;4988084;28;20094;-72
2022/08/06 08:06:22;;;;;;;5.07;0.77;;;21.50;56.90;;;;;;4989332;28;20172;-74
2022/08/06 08:08:55;;;;;;;3.65;0.63;;;21.60;57.10;;;;;;4966815;28;20025;-73
2022/08/06 08:11:23;;;;;;;1.40;0.40;;;21.60;57.10;;;;;;4987523;28;20027;-72
2022/08/06 08:13:53;;;;;;;3.53;0.93;;;21.60;55.00;;;;;;4989492;28;20566;-72
2022/08/06 08:16:19;;;;;;;;;;;21.60;56.00;;;;;;4985269;28;20037;-74
2022/08/06 08:18:44;;;;;;;2.75;0.52;;;21.70;55.50;;;;;;4987387;28;20045;-74
2022/08/06 08:21:11;;;;;;;2.67;0.70;;;21.80;55.50;;;;;;4987252;28;20050;-73
2022/08/06 08:23:38;;;;;;;2.42;0.50;;;21.90;54.70;;;;;;4987919;28;20022;-75
2022/08/06 08:26:04;;;;;;;5.15;0.70;;;22.00;54.10;;;;;;4987194;28;20664;-74
2022/08/06 08:28:30;;;;;;;3.45;1.00;;;22.10;54.00;;;;;;4987468;28;20030;-74
2022/08/06 08:31:01;;;;;;;3.17;0.68;;;22.30;54.20;;;;;;4987975;28;20034;-74
2022/08/06 08:33:28;;;;;;;1.45;0.52;;;22.40;53.50;;;;;;4986874;28;20019;-74
2022/08/06 08:35:53;;;;;;;3.08;0.40;;;22.70;52.60;;;;;;4986705;28;20053;-74
2022/08/06 08:38:19;;;;;;;1.15;0.40;;;22.70;52.20;;;;;;4987212;28;20034;-74
2022/08/06 08:40:47;;;;;;;2.10;0.60;;;22.90;51.30;;;;;;4987817;28;20018;-75
2022/08/06 08:43:23;;;;;;;1.33;0.40;;;23.10;51.80;;;;;;4987248;28;20034;-77
2022/08/06 08:45:50;;;;;;;1.33;0.30;;;23.10;51.10;;;;;;4986384;28;20054;-75
2022/08/06 08:48:22;;;;;;;2.58;0.57;;;23.20;52.60;;;;;;4987978;28;20018;-76
2022/08/06 08:50:49;;;;;;;1.73;0.70;;;23.40;53.90;;;;;;4984469;28;20060;-74
2022/08/06 08:53:24;;;;;;;3.40;0.63;;;23.60;53.40;;;;;;4979933;28;20033;-78
2022/08/06 08:55:51;;;;;;;2.92;0.80;;;23.50;51.50;;;;;;4982073;28;20106;-80
2022/08/06 08:58:18;;;;;;;1.70;0.68;;;23.30;54.50;;;;;;4982222;28;20038;-81
2022/08/06 09:00:44;;;;;;;2.30;0.75;;;23.20;54.20;;;;;;4983037;28;20489;-79
2022/08/06 09:03:11;;;;;;;1.65;0.60;;;23.40;52.90;;;;;;4983647;28;20084;-79
2022/08/06 09:05:36;;;;;;;1.95;0.88;;;23.60;50.40;;;;;;4965930;28;20868;-79
2022/08/06 09:08:03;;;;;;;3.00;0.52;;;23.60;50.20;;;;;;4982076;28;20093;-78
2022/08/06 09:10:29;;;;;;;5.18;0.82;;;23.70;52.80;;;;;;4981780;28;20038;-77
2022/08/06 09:12:55;;;;;;;1.30;0.40;;;23.90;52.70;;;;;;4982150;28;20046;-76
2022/08/06 09:15:21;;;;;;;1.45;0.50;;;24.20;51.20;;;;;;4981544;28;20058;-78
2022/08/06 09:17:49;;;;;;;2.58;0.95;;;24.50;49.70;;;;;;4982885;28;20089;-78
2022/08/06 09:20:15;;;;;;;2.40;0.40;;;24.70;47.30;;;;;;4982793;28;20025;-75
2022/08/06 09:22:44;;;;;;;5.03;0.80;;;24.80;48.10;;;;;;4985572;28;20558;-81
2022/08/06 09:26:01;;;;;;;1.98;0.60;;;24.90;48.00;;;;;;4986305;28;20054;-82
2022/08/06 09:28:32;;;;;;;1.65;0.45;;;25.30;47.70;;;;;;4939053;28;20057;-78
2022/08/06 09:31:03;;;;;;;1.65;0.40;;;25.60;47.20;;;;;;4984623;28;20022;-78
2022/08/06 09:33:31;;;;;;;0.85;0.40;;;25.60;46.00;;;;;;4969051;28;20080;-77
2022/08/06 09:35:58;;;;;;;3.28;0.40;;;25.50;45.90;;;;;;4984273;28;20101;-75
2022/08/06 09:38:24;;;;;;;3.72;0.50;;;25.50;46.30;;;;;;4985386;28;20029;-76
2022/08/06 09:41:08;;;;;;;3.28;0.73;;;25.40;44.20;;;;;;4983586;28;20019;-76
2022/08/06 09:43:35;;;;;;;2.08;0.30;;;25.10;43.90;;;;;;4984020;28;20064;-78
2022/08/06 09:46:02;;;;;;;1.33;0.47;;;24.80;48.80;;;;;;4983189;28;20058;-76
2022/08/06 09:48:29;;;;;;;0.85;0.50;;;24.50;46.20;;;;;;4967939;28;20129;-77
2022/08/06 09:50:55;;;;;;;1.77;0.65;;;24.20;48.20;;;;;;4968579;28;20109;-78
2022/08/06 09:53:23;;;;;;;2.47;0.65;;;24.10;47.00;;;;;;4983931;28;20058;-79
2022/08/06 09:55:54;;;;;;;2.78;0.40;;;24.00;46.30;;;;;;4984501;28;20048;-75
2022/08/06 09:58:35;;;;;;;3.67;0.90;;;24.30;46.00;;;;;;4985831;28;20065;-74
2022/08/06 10:01:17;;;;;;;2.33;0.70;;;24.40;47.20;;;;;;4986070;28;20072;-75
2022/08/06 10:03:43;;;;;;;2.47;0.55;;;24.20;49.00;;;;;;4986233;28;20050;-74
2022/08/06 10:06:12;;;;;;;1.42;0.40;;;24.00;53.40;;;;;;4984670;28;20454;-76
2022/08/06 10:08:39;;;;;;;1.65;0.43;;;23.90;53.90;;;;;;4985321;28;20034;-76
2022/08/06 10:11:05;;;;;;;2.95;0.65;;;23.80;55.50;;;;;;4986046;28;20496;-76
2022/08/06 10:13:31;;;;;;;1.90;0.40;;;24.00;55.60;;;;;;4984792;28;20057;-76
2022/08/06 10:16:00;;;;;;;2.50;0.65;;;24.10;55.70;;;;;;4985215;28;20035;-76
2022/08/06 10:18:34;;;;;;;6.38;0.88;;;24.30;55.20;;;;;;4985545;28;20034;-75
2022/08/06 10:21:06;;;;;;;8.75;0.85;;;24.70;54.20;;;;;;4984772;28;20468;-76
2022/08/06 10:23:34;;;;;;;3.00;0.70;;;25.00;54.20;;;;;;4985231;28;20026;-76
2022/08/06 10:26:05;;;;;;;2.08;0.50;;;25.30;47.40;;;;;;4968735;28;20416;-76
2022/08/06 10:28:34;;;;;;;2.72;0.40;;;25.60;46.30;;;;;;4985447;28;20068;-78
2022/08/06 10:31:03;;;;;;;3.25;0.70;;;25.90;48.20;;;;;;4986008;28;20119;-77
2022/08/06 10:33:33;;;;;;;2.42;0.40;;;25.80;40.80;;;;;;4986078;28;20447;-76
2022/08/06 10:36:09;;;;;;;3.88;0.40;;;25.60;41.50;;;;;;4983985;28;20034;-78
2022/08/06 10:38:38;;;;;;;3.05;0.55;;;25.40;42.50;;;;;;4984397;28;20531;-77
2022/08/06 10:41:08;;;;;;;3.70;0.65;;;25.30;42.70;;;;;;4984819;28;20716;-72
2022/08/06 10:43:36;;;;;;;1.40;0.40;;;25.20;50.70;;;;;;4983313;28;20046;-79
2022/08/06 10:46:12;;;;;;;1.60;0.40;;;25.10;50.40;;;;;;4984445;28;20037;-79
2022/08/06 10:48:39;;;;;;;4.15;0.68;;;24.90;54.30;;;;;;4983191;28;20142;-78
2022/08/06 10:51:07;;;;;;;5.22;0.73;;;24.80;48.40;;;;;;4983181;28;20026;-78
2022/08/06 10:53:34;;;;;;;2.00;0.40;;;24.90;49.30;;;;;;4983760;28;20750;-79
2022/08/06 10:56:03;;;;;;;5.05;0.93;;;25.10;46.50;;;;;;4968658;28;20015;-80
2022/08/06 10:58:30;;;;;;;5.00;0.70;;;25.40;52.80;;;;;;4984438;28;20036;-76
2022/08/06 11:00:59;;;;;;;1.98;0.60;;;25.70;53.30;;;;;;4984594;28;20036;-76
2022/08/06 11:03:39;;;;;;;1.92;0.40;;;25.70;41.00;;;;;;4984319;28;20460;-76
2022/08/06 11:06:44;;;;;;;5.75;1.27;;;25.90;42.70;;;;;;4984099;28;20109;-76
2022/08/06 11:09:42;;;;;;;2.83;0.70;;;26.00;52.40;;;;;;4963437;28;20077;-76
2022/08/06 11:12:32;;;;;;;4.05;0.95;;;25.70;48.20;;;;;;4983630;28;20781;-75
2022/08/06 11:14:59;;;;;;;6.10;0.75;;;25.40;48.70;;;;;;4987528;28;20807;-76
2022/08/06 11:17:25;;;;;;;1.40;0.40;;;25.20;50.60;;;;;;4989679;28;20060;-76
2022/08/06 11:19:50;;;;;;;4.50;0.70;;;25.10;44.30;;;;;;4989595;28;20477;-76
2022/08/06 11:22:39;;;;;;;3.45;0.60;;;25.10;42.20;;;;;;4990523;28;20528;-75
2022/08/06 11:25:08;;;;;;;1.95;0.47;;;25.40;43.20;;;;;;4989993;28;20389;-76
2022/08/06 11:28:01;;;;;;;4.03;0.50;;;25.70;47.60;;;;;;4990481;28;20049;-76
2022/08/06 11:30:42;;;;;;;2.80;1.02;;;25.80;48.90;;;;;;4990204;28;20113;-75
2022/08/06 11:33:09;;;;;;;2.33;0.60;;;25.60;39.90;;;;;;4989373;28;20097;-76
2022/08/06 11:35:36;;;;;;;3.47;0.73;;;25.40;48.80;;;;;;4989815;28;20594;-76
2022/08/06 11:38:05;;;;;;;1.77;0.73;;;25.20;47.10;;;;;;4989204;28;20042;-77
2022/08/06 11:41:00;;;;;;;2.90;0.63;;;25.10;50.70;;;;;;4972010;28;20165;-76
2022/08/06 11:43:53;;;;;;;4.82;0.68;;;24.90;54.10;;;;;;4971851;28;20393;-77
2022/08/06 11:46:27;;;;;;;1.88;0.52;;;24.70;51.70;;;;;;4988868;28;20035;-76
2022/08/06 11:48:59;;;;;;;3.28;0.50;;;24.60;47.30;;;;;;4969762;28;20446;-77
2022/08/06 11:51:45;;;;;;;2.03;0.60;;;24.50;52.30;;;;;;4984303;28;20035;-76
2022/08/06 11:54:27;;;;;;;3.08;0.50;;;24.30;53.00;;;;;;4973370;28;20022;-75
2022/08/06 11:57:01;;;;;;;4.30;0.90;;;24.20;50.10;;;;;;4990425;28;20043;-76
2022/08/06 11:59:28;;;;;;;3.00;0.70;;;24.20;55.60;;;;;;4989348;28;20100;-74
2022/08/06 12:01:54;;;;;;;4.55;0.50;;;24.20;54.30;;;;;;4988968;28;20493;-76
2022/08/06 12:04:35;;;;;;;3.95;0.60;;;24.30;56.70;;;;;;4979255;28;20153;-77
2022/08/06 12:07:27;;;;;;;2.53;0.60;;;24.40;56.50;;;;;;4976069;28;20034;-76
2022/08/06 12:10:00;;;;;;;2.90;0.65;;;24.50;52.50;;;;;;4976318;28;20061;-76
2022/08/06 12:12:27;;;;;;;5.63;1.20;;;24.40;53.80;;;;;;4973587;28;20018;-76
2022/08/06 12:14:59;;;;;;;1.88;0.60;;;24.60;55.60;;;;;;4957974;28;20090;-75
2022/08/06 12:17:27;;;;;;;4.80;0.70;;;25.10;50.80;;;;;;4977293;28;20571;-78
2022/08/06 12:19:55;;;;;;;5.68;0.70;;;25.40;53.10;;;;;;4987805;28;20041;-76
2022/08/06 12:22:22;;;;;;;3.17;1.05;;;25.50;51.70;;;;;;4987932;28;20480;-77
2022/08/06 12:24:54;;;;;;;3.25;0.77;;;25.50;49.70;;;;;;4987660;28;20076;-77
2022/08/06 12:27:21;;;;;;;2.67;0.60;;;25.30;50.00;;;;;;4989026;28;20068;-76
2022/08/06 12:29:48;;;;;;;1.52;0.63;;;24.90;43.90;;;;;;4989619;28;20545;-75
2022/08/06 12:32:26;;;;;;;2.95;0.73;;;24.70;49.60;;;;;;4987882;28;20669;-78
2022/08/06 12:34:53;;;;;;;0.93;0.50;;;24.50;53.00;;;;;;4987935;28;20098;-75
2022/08/06 12:37:19;;;;;;;3.80;0.80;;;24.50;49.70;;;;;;4988421;28;20162;-76
2022/08/06 12:42:30;;;;;;;4.07;0.68;;;24.50;46.90;;;;;;4988093;28;20048;-75
2022/08/06 12:44:56;;;;;;;1.67;0.60;;;24.70;52.10;;;;;;4994179;28;20026;-75
2022/08/06 12:47:25;;;;;;;2.05;0.63;;;24.80;49.00;;;;;;4987581;28;20049;-75
2022/08/06 12:49:52;;;;;;;2.25;0.55;;;25.00;46.00;;;;;;4988999;28;20042;-76
2022/08/06 12:52:21;;;;;;;1.35;0.50;;;25.30;49.10;;;;;;4985669;28;20054;-77
2022/08/06 12:54:48;;;;;;;3.78;0.70;;;25.80;53.20;;;;;;4986923;28;20025;-74
2022/08/06 12:57:27;;;;;;;2.35;0.60;;;26.20;47.70;;;;;;4992362;28;20033;-73
2022/08/06 12:59:54;;;;;;;2.63;0.70;;;26.70;48.40;;;;;;4991960;28;20450;-77
2022/08/06 13:02:23;;;;;;;3.50;0.65;;;26.90;50.70;;;;;;4973964;28;20544;-78
2022/08/06 13:04:54;;;;;;;2.63;0.82;;;26.80;51.80;;;;;;4991870;28;20050;-77
2022/08/06 13:07:21;;;;;;;2.45;0.70;;;26.60;39.90;;;;;;4991780;28;20504;-77
2022/08/06 13:09:47;;;;;;;2.67;0.73;;;26.40;41.50;;;;;;4991500;28;20026;-78
2022/08/06 13:12:19;;;;;;;2.58;0.52;;;26.20;44.50;;;;;;4993059;28;20031;-78
2022/08/06 13:14:50;;;;;;;2.58;0.40;;;26.00;44.50;;;;;;4993001;28;20073;-77